Date,TemperatureHighF,TemperatureAvgF,TemperatureLowF,DewpointHighF,DewpointAvgF,DewpointLowF,HumidityHigh,HumidityAvg,HumidityLow,PressureMaxIn,PressureMinIn,WindSpeedMaxMPH,WindSpeedAvgMPH,GustSpeedMaxMPH,PrecipitationSumIn
2013-1-1,55,46,36,46,38,31,88,77,62,30.19,30.09,10,2,12,0.03
2013-1-2,55,51,48,46,44,42,86,77,65,30.30,30.06,22,5,22,0.10
2013-1-3,59,50,44,45,42,38,83,73,57,30.52,30.30,12,3,15,0.00
2013-1-4,58,48,40,44,40,36,87,75,57,30.52,30.32,10,2,11,0.00
2013-1-5,54,46,39,45,40,35,92,80,69,30.32,30.12,14,2,15,0.00
2013-1-6,58,47,39,48,42,36,90,82,66,30.25,30.10,9,2,9,0.00
2013-1-7,60,49,42,45,42,38,89,77,55,30.25,30.09,12,2,12,0.00
2013-1-8,53,46,39,46,40,35,86,80,70,30.32,30.23,6,2,7,0.00
2013-1-9,55,50,45,44,42,41,87,75,61,30.23,30.13,7,1,8,0.00
2013-1-10,54,50,48,47,44,41,88,80,69,30.13,29.84,13,2,13,0.13
2013-1-11,56,47,41,50,43,40,94,86,67,29.87,29.69,26,3,26,0.10
2013-1-12,55,47,38,46,41,35,89,79,65,30.04,29.86,14,2,14,0.00
2013-1-13,55,51,47,50,46,42,90,82,71,30.03,29.75,33,6,35,1.02
2013-1-14,56,52,48,50,45,40,89,78,66,29.92,29.72,26,5,26,0.16
2013-1-15,54,48,44,42,39,36,84,72,51,29.92,29.58,18,3,19,0.06
2013-1-16,47,43,38,42,38,35,89,83,73,29.58,29.44,27,5,30,1.10
2013-1-17,50,42,38,42,36,34,85,81,72,29.46,29.30,26,4,30,0.05
2013-1-18,46,42,38,35,33,31,88,71,58,29.65,29.37,37,10,37,0.01
2013-1-19,56,42,34,51,36,29,88,80,72,29.67,29.52,19,5,25,0.09
2013-1-20,60,56,50,54,51,47,90,83,72,29.53,29.45,31,8,31,0.26
2013-1-21,55,50,46,49,44,39,90,80,71,29.55,29.39,23,3,24,0.09
2013-1-22,54,49,43,45,40,35,87,72,49,29.81,29.53,26,3,30,0.01
2013-1-23,48,45,43,43,39,36,89,80,72,29.81,29.57,22,6,22,0.31
2013-1-24,51,46,42,42,39,36,89,79,63,29.58,29.40,18,5,19,0.17
2013-1-25,52,45,38,39,35,31,86,69,54,29.66,29.44,25,7,25,0.00
2013-1-26,50,42,37,32,30,28,74,62,48,29.88,29.65,16,5,17,0.00
2013-1-27,53,42,34,38,31,26,79,67,55,30.00,29.88,11,3,11,0.00
2013-1-28,47,44,38,44,39,33,92,82,72,30.06,29.83,24,6,25,0.37
2013-1-29,57,47,40,44,40,36,87,76,53,30.25,30.06,14,2,14,0.00
2013-1-30,60,49,40,48,42,36,88,78,55,30.25,30.17,10,2,10,0.00
2013-1-31,65,54,47,51,47,42,89,78,57,30.21,30.13,13,2,14,0.00
2013-2-1,53,49,48,47,44,43,87,83,77,30.16,30.05,8,1,9,0.00
2013-2-2,60,54,51,52,44,38,87,71,59,29.33,29.25,33,10,34,0.18
2013-2-3,54,48,43,41,36,26,80,63,45,29.98,29.32,23,6,23,0.03
2013-2-4,55,45,38,37,30,24,74,55,35,30.16,29.97,16,3,16,0.00
2013-2-5,54,48,40,48,41,32,86,76,65,30.14,29.79,21,4,21,0.01
2013-2-6,55,50,42,47,40,31,88,69,43,29.80,29.50,36,5,36,0.13
2013-2-7,50,43,40,41,37,33,89,79,60,29.58,29.46,22,6,23,0.65
2013-2-8,50,44,39,33,31,27,78,61,47,29.76,29.57,24,8,26,0.00
2013-2-9,47,40,35,32,26,23,79,57,40,29.90,29.76,21,7,24,0.00
2013-2-10,47,39,31,25,22,13,73,53,26,29.97,29.88,17,4,17,0.00
2013-2-11,54,44,36,45,34,19,89,70,42,29.96,29.52,33,10,36,1.31
2013-2-12,54,47,42,43,41,39,89,80,60,29.70,29.55,13,2,16,0.01
2013-2-13,52,44,38,39,35,32,86,72,51,29.83,29.68,19,4,20,0.00
2013-2-14,55,45,38,36,34,31,79,66,46,30.00,29.83,16,4,16,0.00
2013-2-15,55,45,36,39,36,32,84,70,46,30.01,29.94,11,2,11,0.00
2013-2-16,57,47,40,42,37,33,84,68,46,30.07,29.99,14,3,15,0.00
2013-2-17,54,44,38,41,36,32,83,73,60,30.06,29.97,22,4,22,0.00
2013-2-18,51,44,38,40,36,33,86,76,63,30.01,29.94,16,4,17,0.00
2013-2-19,54,44,35,36,32,27,80,65,37,30.02,29.93,14,3,15,0.00
2013-2-20,54,44,35,38,34,29,79,67,50,30.00,29.90,13,2,14,0.00
2013-2-21,56,47,37,44,37,32,82,69,47,29.92,29.67,14,2,14,0.04
2013-2-22,55,51,48,49,45,43,87,80,68,29.67,29.43,23,4,25,0.17
2013-2-23,56,48,41,52,43,38,89,83,70,29.62,29.39,37,7,40,0.96
2013-2-24,49,45,39,40,35,30,83,70,51,29.93,29.62,26,4,28,0.10
2013-2-25,43,41,39,38,36,33,89,83,74,30.05,29.93,25,5,25,0.42
2013-2-26,55,46,39,40,37,34,86,73,52,30.13,30.03,11,2,12,0.01
2013-2-27,56,47,38,38,34,32,86,64,41,30.21,30.12,16,3,17,0.00
2013-2-28,59,48,38,42,37,32,81,68,48,30.24,30.14,14,2,16,0.00
2013-3-1,55,49,43,41,39,36,80,68,56,30.14,29.86,12,4,12,0.00
2013-3-2,61,53,48,42,38,32,75,58,40,30.01,29.80,22,5,22,0.00
2013-3-3,61,50,39,46,39,31,84,66,51,30.08,30.00,15,3,15,0.00
2013-3-4,61,51,41,45,42,37,87,72,51,30.19,30.07,14,2,16,0.00
2013-3-5,60,51,42,44,40,36,85,67,44,30.20,29.96,19,3,20,0.02
2013-3-6,62,57,53,54,46,38,91,69,48,29.96,29.69,33,8,35,0.43
2013-3-7,63,58,55,55,53,52,92,85,72,29.78,29.70,17,3,20,0.02
2013-3-8,60,57,54,55,52,51,90,85,76,29.78,29.64,20,3,24,0.21
2013-3-9,66,58,54,53,51,45,92,77,50,29.78,29.67,23,5,23,0.02
2013-3-10,64,57,52,53,49,45,90,78,56,29.71,29.52,27,5,27,0.63
2013-3-11,62,56,48,52,49,42,90,78,59,29.61,29.54,27,4,27,0.22
2013-3-12,59,50,46,51,45,41,94,84,63,29.60,29.51,24,4,25,0.87
2013-3-13,54,48,44,48,44,41,89,86,76,29.54,29.27,17,3,17,0.87
2013-3-14,56,49,44,45,40,33,90,72,49,29.29,29.11,31,8,32,0.00
2013-3-15,54,46,41,34,30,25,70,54,37,29.88,29.30,23,6,26,0.00
2013-3-16,53,44,35,35,29,22,72,55,31,30.13,29.88,15,3,18,0.00
2013-3-17,52,48,41,43,37,32,76,64,55,30.12,29.77,24,6,28,0.04
2013-3-18,59,55,50,53,48,42,85,75,62,29.77,29.49,38,11,40,0.38
2013-3-19,59,54,49,46,44,41,76,67,55,29.82,29.67,24,6,25,0.00
2013-3-20,58,50,45,48,42,38,89,74,52,29.81,29.66,17,2,17,0.35
2013-3-21,60,54,48,49,41,35,90,64,40,29.96,29.65,27,7,31,0.02
2013-3-22,65,53,42,48,41,32,82,66,33,29.96,29.86,20,2,21,0.00
2013-3-23,63,54,45,50,46,41,86,75,56,29.94,29.78,16,2,17,0.00
2013-3-24,72,60,50,48,44,38,86,58,30,29.78,29.43,26,4,27,0.00
2013-3-25,58,54,48,51,46,39,88,74,59,29.54,29.30,18,4,20,0.54
2013-3-26,57,51,46,50,45,38,88,80,70,29.59,29.51,19,2,21,0.26
2013-3-27,62,54,45,50,46,42,87,75,52,29.82,29.59,14,3,16,0.00
2013-3-28,59,55,51,54,50,46,89,83,77,29.88,29.80,17,4,17,0.08
2013-3-29,64,60,59,53,52,50,79,73,64,29.80,29.77,18,5,20,0.00
2013-3-30,63,59,55,55,52,50,92,78,70,29.77,29.47,30,7,33,0.17
2013-3-31,61,56,52,52,49,46,91,77,65,29.68,29.47,32,6,32,0.15
2013-4-1,62,56,50,50,46,42,85,70,51,29.73,29.52,29,6,30,0.20
2013-4-2,58,55,52,54,50,46,92,85,77,29.57,29.42,25,5,26,0.85
2013-4-3,63,55,50,48,46,42,83,71,50,29.78,29.57,15,2,19,0.00
2013-4-4,67,57,46,50,45,40,83,66,37,29.80,29.50,21,4,25,0.00
2013-4-5,65,57,54,54,49,42,89,76,45,29.79,29.42,29,5,29,0.15
2013-4-6,67,57,49,54,48,44,85,74,52,29.80,29.73,18,2,18,0.16
2013-4-7,68,59,51,51,45,36,83,62,43,29.78,29.63,26,8,28,0.01
2013-4-8,64,54,46,48,40,35,76,59,38,29.87,29.77,21,5,23,0.00
2013-4-9,64,58,54,51,48,43,84,70,48,29.92,29.82,19,5,21,0.01
2013-4-10,67,60,54,53,50,44,79,70,58,30.01,29.88,20,4,20,0.00
2013-4-11,68,59,50,51,47,43,85,65,43,30.04,30.00,19,4,22,0.00
2013-4-12,68,61,56,55,51,46,81,70,54,30.02,29.94,27,6,29,0.00
2013-4-13,72,62,54,54,51,45,87,70,39,30.27,30.02,17,3,20,0.00
2013-4-14,75,62,52,54,48,43,86,63,33,30.33,30.26,15,2,16,0.00
2013-4-15,76,64,54,56,51,47,81,63,40,30.27,30.12,17,2,18,0.00
2013-4-16,76,64,54,56,52,49,90,68,42,30.17,30.11,18,2,18,0.00
2013-4-17,76,65,57,57,52,46,85,66,36,30.22,30.14,18,2,18,0.00
2013-4-18,77,66,55,57,51,43,87,63,30,30.18,30.04,17,2,18,0.00
2013-4-19,77,66,57,59,53,45,87,65,40,30.06,29.93,18,3,19,0.00
2013-4-20,64,60,56,57,50,45,88,69,56,30.04,29.96,17,3,18,0.02
2013-4-21,64,58,52,50,45,39,80,63,41,30.04,29.95,20,4,22,0.00
2013-4-22,57,52,48,48,45,40,88,78,63,30.04,29.88,18,5,21,0.57
2013-4-23,67,58,50,50,48,45,87,69,51,30.27,30.04,15,2,17,0.06
2013-4-24,78,64,53,52,49,46,79,60,37,30.33,30.25,13,3,14,0.00
2013-4-25,78,68,59,57,52,46,77,58,33,30.28,30.12,13,3,14,0.00
2013-4-26,68,64,59,59,54,50,80,70,58,30.15,29.97,22,3,24,0.01
2013-4-27,66,61,56,57,54,51,85,78,68,29.97,29.77,29,6,30,0.04
2013-4-28,79,69,59,58,55,52,87,65,40,29.97,29.85,18,3,20,0.00
2013-4-29,86,76,65,58,52,44,69,46,29,30.01,29.95,24,5,24,0.00
2013-4-30,86,75,67,57,52,47,61,46,30,30.07,29.99,34,5,34,0.00
2013-5-1,81,71,63,58,54,44,78,57,31,30.08,30.00,20,3,24,0.08
2013-5-2,77,67,62,63,59,55,90,75,49,30.05,29.92,18,4,19,0.23
2013-5-3,81,69,59,61,56,53,85,65,40,29.98,29.88,18,3,18,0.00
2013-5-4,82,71,63,62,56,51,82,61,43,29.99,29.89,16,3,17,0.00
2013-5-5,72,66,62,60,57,52,86,74,57,30.03,29.95,12,3,13,0.22
2013-5-6,66,62,58,61,58,55,92,86,79,29.99,29.88,20,3,20,1.65
2013-5-7,71,64,60,59,57,55,87,79,60,30.03,29.96,15,2,16,0.02
2013-5-8,73,65,58,58,55,50,88,70,52,30.00,29.91,17,2,18,0.00
2013-5-9,77,67,57,60,56,51,87,69,45,30.00,29.94,17,2,17,0.00
2013-5-10,73,67,62,60,59,55,88,76,56,29.98,29.93,14,2,15,0.00
2013-5-11,72,66,62,60,57,54,87,74,56,29.96,29.85,20,4,23,0.01
2013-5-12,72,64,57,57,55,51,84,72,51,29.90,29.83,25,4,27,0.00
2013-5-13,73,65,56,53,47,37,85,56,28,29.99,29.89,32,8,32,0.00
2013-5-14,76,66,54,57,48,41,80,53,31,30.02,29.89,18,2,22,0.00
2013-5-15,72,64,57,57,52,44,82,66,39,29.89,29.69,22,4,26,0.01
2013-5-16,74,67,61,59,55,50,85,66,53,29.69,29.54,30,6,33,0.17
2013-5-17,69,64,59,61,55,49,86,71,50,29.93,29.56,23,5,23,0.22
2013-5-18,80,68,56,60,53,48,78,60,37,29.99,29.82,16,2,18,0.00
2013-5-19,69,66,62,59,52,46,81,62,45,30.07,29.81,22,5,23,0.00
2013-5-20,70,64,59,53,49,43,80,60,38,30.12,30.06,19,3,19,0.00
2013-5-21,67,62,57,54,50,47,85,66,50,30.10,29.84,16,3,16,0.09
2013-5-22,74,63,58,62,57,53,89,81,55,29.85,29.40,17,5,17,0.98
2013-5-23,67,61,57,58,55,51,91,81,59,29.69,29.45,21,5,24,0.20
2013-5-24,66,61,57,55,49,41,85,66,44,29.90,29.66,36,7,36,0.00
2013-5-25,65,59,54,48,45,41,69,60,43,29.90,29.82,33,6,33,0.02
2013-5-26,66,58,50,49,46,42,82,65,48,30.02,29.83,19,4,19,0.02
2013-5-27,70,62,54,53,48,34,78,63,31,30.02,29.92,23,4,23,0.00
2013-5-28,75,65,57,54,50,38,84,60,31,29.94,29.68,21,3,21,0.00
2013-5-29,68,63,58,59,52,44,85,68,44,29.77,29.70,26,4,26,0.14
2013-5-30,64,59,55,53,49,47,82,70,57,29.77,29.72,26,6,26,0.11
2013-5-31,66,60,53,54,50,48,85,71,55,29.76,29.71,29,5,29,0.02
2013-6-1,67,60,57,55,52,50,90,76,59,29.81,29.70,21,3,23,0.47
2013-6-2,72,64,56,58,55,52,89,75,55,29.96,29.80,20,2,21,0.01
2013-6-3,74,64,58,57,56,50,89,76,53,29.97,29.90,21,3,22,0.07
2013-6-4,73,64,58,61,57,52,90,77,51,30.01,29.91,24,3,24,0.08
2013-6-5,75,67,58,61,57,53,89,72,50,30.06,29.98,20,2,20,0.01
2013-6-6,77,68,58,61,56,51,82,65,44,30.09,30.00,19,3,19,0.00
2013-6-7,81,71,62,60,57,55,81,63,44,30.04,29.96,22,4,23,0.00
2013-6-8,82,72,62,61,58,54,80,64,43,30.00,29.93,18,3,18,0.00
2013-6-9,78,70,63,65,58,48,82,65,40,29.98,29.87,21,4,23,0.00
2013-6-10,74,69,65,61,57,51,87,68,48,29.91,29.85,21,4,21,0.01
2013-6-11,77,69,61,59,57,54,83,67,53,29.96,29.88,22,4,22,0.01
2013-6-12,85,74,63,59,55,50,81,54,33,30.02,29.94,22,6,24,0.00
2013-6-13,86,76,64,54,51,49,61,43,30,30.05,29.96,18,5,18,0.00
2013-6-14,86,76,64,60,55,50,63,49,38,30.03,29.98,23,4,23,0.00
2013-6-15,86,76,68,64,61,57,80,61,43,30.07,30.02,19,2,21,0.00
2013-6-16,87,78,68,65,62,60,74,59,44,30.08,30.03,18,2,18,0.00
2013-6-17,91,79,68,67,62,59,82,59,39,30.06,29.98,18,2,19,0.00
2013-6-18,93,83,73,69,63,59,67,53,37,30.01,29.97,22,2,22,0.00
2013-6-19,95,84,72,66,63,58,73,52,33,30.02,29.97,17,2,18,0.00
2013-6-20,93,83,74,67,62,57,69,51,31,30.02,29.98,19,2,20,0.00
2013-6-21,88,80,71,68,63,57,78,58,39,30.04,29.99,17,3,18,0.00
2013-6-22,83,76,69,67,61,55,76,61,40,30.05,29.99,15,2,16,0.00
2013-6-23,85,75,67,65,62,56,84,66,40,30.04,29.94,24,4,24,0.00
2013-6-24,76,71,67,64,60,54,80,68,49,29.96,29.87,22,5,23,0.00
2013-6-25,81,72,61,58,53,47,73,54,33,30.03,29.94,24,6,24,0.00
2013-6-26,79,69,63,60,56,52,75,63,48,30.09,30.01,25,4,25,0.02
2013-6-27,79,68,58,57,54,49,82,62,36,30.09,30.02,23,4,23,0.00
2013-6-28,78,70,62,61,56,53,79,63,43,30.02,29.95,25,8,27,0.00
2013-6-29,79,68,58,54,52,48,82,58,36,30.03,29.95,25,6,25,0.00
2013-6-30,81,72,60,56,50,46,63,48,32,30.08,30.01,20,3,24,0.00
2013-7-1,83,73,62,57,54,50,69,52,36,30.10,30.07,19,3,21,0.00
2013-7-2,86,76,65,59,55,52,65,50,35,30.10,30.02,19,3,19,0.00
2013-7-3,84,76,66,63,56,51,73,53,34,30.06,29.97,18,3,20,0.00
2013-7-4,84,72,63,66,62,56,85,71,44,30.06,29.95,23,3,23,0.39
2013-7-5,92,78,66,64,60,52,86,58,29,30.08,30.02,21,3,21,0.01
2013-7-6,91,79,71,65,58,52,64,50,31,30.09,30.02,30,3,30,0.06
2013-7-7,90,75,68,66,62,59,85,65,39,30.10,30.00,27,4,29,1.01
2013-7-8,89,74,67,67,63,58,84,69,36,30.10,30.03,13,3,25,0.11
2013-7-9,87,74,65,65,63,60,85,71,45,30.10,29.99,27,3,28,0.02
2013-7-10,87,74,66,68,63,60,86,70,45,30.00,29.85,22,3,23,0.10
2013-7-11,86,75,67,70,65,58,88,72,53,29.95,29.85,21,2,22,0.00
2013-7-12,86,78,69,68,64,60,81,64,43,30.03,29.94,19,3,19,0.00
2013-7-13,86,79,69,69,65,61,87,64,49,30.04,29.99,20,3,21,0.00
2013-7-14,88,79,70,69,66,63,81,65,47,30.02,29.95,20,3,21,0.12
2013-7-15,88,78,70,68,64,60,80,63,41,30.04,29.99,17,3,20,0.00
2013-7-16,89,80,70,67,63,57,77,56,35,30.09,30.03,21,3,22,0.00
2013-7-17,90,80,72,69,64,54,75,59,35,30.09,30.00,21,3,22,0.00
2013-7-18,87,79,72,71,66,61,82,65,49,30.06,30.02,22,3,25,0.00
2013-7-19,85,74,69,68,65,60,85,73,55,30.07,30.00,44,2,44,0.50
2013-7-20,87,76,65,68,64,59,89,69,42,30.03,29.93,18,3,18,0.00
2013-7-21,89,75,68,68,63,57,81,67,38,30.03,29.94,33,3,38,0.28
2013-7-22,92,77,66,70,64,59,83,65,34,30.02,29.92,19,3,21,0.00
2013-7-23,91,80,70,72,65,53,82,62,31,29.97,29.90,18,3,20,0.00
2013-7-24,85,76,72,72,67,63,87,75,54,30.01,29.96,6,1,8,0.00
2013-7-25,90,85,76,73,68,62,82,59,41,30.05,30.00,16,3,18,0.00
2013-7-26,93,83,74,73,68,63,82,62,40,30.02,29.94,17,2,18,0.00
2013-7-27,96,84,74,69,66,62,74,57,37,29.96,29.92,19,2,20,0.00
2013-7-28,97,86,74,72,65,62,79,53,33,30.06,29.96,18,2,19,0.00
2013-7-29,94,85,75,76,66,56,84,55,30,30.07,29.99,19,3,21,0.00
2013-7-30,92,83,75,76,62,54,85,53,29,30.02,29.91,20,6,21,0.00
2013-7-31,93,82,74,67,60,56,63,50,31,29.96,29.90,24,4,24,0.00
2013-8-1,94,81,73,66,59,53,65,48,30,30.01,29.94,22,4,26,0.00
2013-8-2,93,83,73,70,64,59,69,54,38,30.05,29.99,16,3,19,0.00
2013-8-3,94,84,73,69,65,61,74,54,37,30.06,30.01,21,3,21,0.00
2013-8-4,100,86,75,67,62,56,66,47,25,30.07,30.00,18,3,20,0.00
2013-8-5,99,86,73,64,60,54,57,43,25,30.04,29.94,14,2,18,0.00
2013-8-6,98,86,77,70,63,57,58,47,34,29.99,29.94,16,2,16,0.00
2013-8-7,98,87,75,71,63,55,69,47,26,29.96,29.91,17,2,17,0.00
2013-8-8,99,87,74,65,58,53,60,40,22,29.97,29.91,15,2,19,0.00
2013-8-9,89,81,75,65,61,56,67,51,38,29.94,29.82,26,4,33,0.01
2013-8-10,91,81,71,65,61,58,73,53,35,29.91,29.80,22,4,22,0.00
2013-8-11,90,80,71,67,61,57,68,53,34,29.94,29.89,16,3,21,0.00
2013-8-12,92,81,71,67,58,52,69,46,29,30.00,29.94,20,4,20,0.00
2013-8-13,91,81,71,65,60,55,64,51,31,29.99,29.94,20,2,20,0.00
2013-8-14,88,80,69,70,63,57,79,58,39,29.96,29.89,19,2,19,0.00
2013-8-15,92,80,71,71,63,60,80,57,37,30.03,29.94,19,4,19,0.00
2013-8-16,91,80,70,70,61,56,64,53,38,30.04,29.96,18,4,20,0.00
2013-8-17,92,80,71,66,61,57,69,53,32,30.03,29.97,23,3,23,0.00
2013-8-18,89,79,70,71,62,57,81,57,38,30.07,30.00,19,3,19,0.00
2013-8-19,91,79,70,71,65,56,81,64,36,30.05,29.96,19,3,21,0.00
2013-8-20,84,74,69,70,64,59,86,73,49,29.98,29.91,30,4,33,0.12
2013-8-21,90,76,67,63,61,58,78,61,37,29.99,29.92,22,3,23,0.00
2013-8-22,89,77,68,67,62,58,73,62,44,29.99,29.92,20,3,21,0.00
2013-8-23,89,78,68,66,62,59,78,59,40,30.00,29.94,21,2,21,0.00
2013-8-24,87,78,68,70,64,58,77,64,45,30.00,29.88,21,2,21,0.00
2013-8-25,82,75,68,70,67,62,87,76,60,29.91,29.77,26,5,26,0.43
2013-8-26,83,76,69,69,65,62,85,70,56,29.88,29.82,22,3,22,0.01
2013-8-27,80,73,66,68,66,63,91,78,62,29.88,29.82,25,2,27,1.47
2013-8-28,82,73,66,67,64,60,88,73,53,29.98,29.84,17,2,18,0.28
2013-8-29,83,74,65,67,63,58,85,68,45,30.07,29.97,16,2,17,0.00
2013-8-30,84,74,66,66,63,60,83,69,48,30.07,29.97,15,2,17,0.00
2013-8-31,83,75,66,67,63,59,83,68,53,30.06,29.99,16,3,18,0.00
2013-9-1,84,74,65,65,60,50,83,62,47,30.08,30.01,16,2,16,0.00
2013-9-2,86,75,65,64,60,50,79,61,32,30.16,30.06,17,2,17,0.00
2013-9-3,86,76,67,67,62,57,74,62,42,30.19,30.13,16,2,16,0.00
2013-9-4,90,78,68,65,60,54,78,57,32,30.20,30.09,19,2,21,0.00
2013-9-5,90,78,68,66,60,56,68,57,34,30.12,29.96,20,2,21,0.00
2013-9-6,89,77,69,66,62,58,73,59,39,29.97,29.88,19,2,24,0.00
2013-9-7,88,77,69,68,64,61,80,65,41,30.11,29.97,20,2,23,0.00
2013-9-8,86,77,69,70,66,62,81,70,48,30.18,30.10,17,2,17,0.00
2013-9-9,84,77,72,72,66,59,86,71,54,30.14,30.05,22,4,23,0.02
2013-9-10,78,72,66,64,62,60,88,70,55,30.10,29.97,19,4,21,0.39
2013-9-11,78,72,65,66,62,58,89,73,55,30.00,29.94,24,4,24,0.02
2013-9-12,75,71,68,60,57,53,75,61,50,29.99,29.91,23,4,23,0.00
2013-9-13,78,69,60,59,56,51,83,64,43,30.11,29.97,20,3,20,0.00
2013-9-14,79,69,61,59,56,51,78,64,41,30.12,30.06,18,2,19,0.00
2013-9-15,71,66,62,64,60,54,89,80,65,30.09,29.83,25,2,25,0.61
2013-9-16,77,68,60,63,60,56,92,76,54,29.83,29.74,24,3,25,0.03
2013-9-17,76,70,65,62,58,52,81,68,45,29.74,29.62,26,5,28,0.00
2013-9-18,76,67,58,59,57,53,83,70,53,29.79,29.72,20,3,21,0.00
2013-9-19,78,69,62,64,59,56,81,71,56,29.85,29.70,17,3,18,0.00
2013-9-20,82,71,63,61,58,56,80,65,43,30.04,29.84,16,2,17,0.00
2013-9-21,82,72,63,62,60,56,81,66,43,30.12,30.04,19,3,21,0.00
2013-9-22,80,71,64,59,53,47,70,55,33,30.19,30.12,20,4,21,0.00
2013-9-23,78,68,60,59,52,47,75,58,43,30.17,30.08,16,3,17,0.00
2013-9-24,80,68,59,62,58,54,86,71,44,30.09,30.03,18,2,18,0.00
2013-9-25,79,68,59,62,59,54,86,72,50,30.06,29.99,17,2,19,0.00
2013-9-26,80,70,60,63,59,55,84,70,46,30.04,29.96,15,2,15,0.00
2013-9-27,81,70,62,64,60,56,84,71,43,30.02,29.96,18,2,18,0.00
2013-9-28,81,70,61,65,61,56,84,75,56,29.99,29.91,14,1,16,0.00
2013-9-29,78,72,67,68,65,62,87,79,68,29.92,29.68,23,4,25,0.19
2013-9-30,74,67,62,66,61,56,90,82,66,29.69,29.59,30,2,30,1.16
2013-10-1,76,68,60,63,59,56,93,77,49,29.80,29.68,14,2,15,0.01
2013-10-2,80,69,61,63,58,53,83,69,48,30.06,29.80,12,2,14,0.00
2013-10-3,76,67,59,59,54,50,74,64,43,30.24,30.06,16,3,16,0.00
2013-10-4,74,66,59,58,55,52,81,68,52,30.28,30.20,11,2,12,0.02
2013-10-5,70,66,61,62,59,55,88,78,66,30.21,30.04,30,3,33,0.65
2013-10-6,77,69,64,65,62,60,90,79,61,30.05,29.97,20,4,20,0.03
2013-10-7,72,67,63,64,61,56,88,82,70,30.11,30.03,13,1,15,0.45
2013-10-8,72,64,60,62,58,54,90,81,64,30.13,30.06,17,3,17,0.19
2013-10-9,69,63,59,61,58,56,90,83,71,30.12,30.02,9,1,10,0.03
2013-10-10,69,63,57,64,58,54,89,85,70,30.06,29.83,21,2,22,0.06
2013-10-11,71,66,62,60,58,54,87,77,65,30.04,29.82,15,2,16,0.06
2013-10-12,74,66,59,65,60,54,88,81,69,30.16,29.98,19,3,21,0.00
2013-10-13,76,67,59,61,58,56,90,75,51,30.18,30.12,10,2,11,0.00
2013-10-14,79,67,57,59,56,51,87,70,40,30.16,30.09,11,2,12,0.00
2013-10-15,73,66,60,62,58,54,83,76,61,30.13,29.93,17,2,18,0.00
2013-10-16,76,69,65,65,60,55,90,73,52,29.93,29.74,21,5,22,0.24
2013-10-17,76,64,55,55,51,44,83,65,34,30.02,29.87,13,2,13,0.00
2013-10-18,75,64,55,61,54,48,84,72,50,30.11,30.02,15,1,15,0.00
2013-10-19,75,66,59,60,57,54,89,76,50,30.26,30.11,16,2,16,0.00
2013-10-20,76,66,57,63,56,50,82,72,57,30.30,30.24,12,1,12,0.00
2013-10-21,76,70,66,64,61,60,81,75,61,30.26,30.21,14,1,14,0.00
2013-10-22,78,68,62,64,60,58,88,78,55,30.24,30.14,13,2,14,0.00
2013-10-23,76,67,59,64,61,56,90,81,62,30.18,30.11,17,2,19,0.00
2013-10-24,72,66,61,63,60,58,90,83,71,30.18,30.11,11,1,11,0.02
2013-10-25,77,68,60,65,61,56,89,80,66,30.20,30.15,10,2,10,0.00
2013-10-26,78,67,60,65,61,56,91,80,56,30.24,30.18,12,1,13,0.01
2013-10-27,74,66,60,63,60,57,91,84,66,30.27,30.19,10,1,11,0.00
2013-10-28,76,68,61,65,61,57,88,80,66,30.20,30.09,15,2,16,0.00
2013-10-29,75,67,60,64,61,57,92,82,67,30.10,29.99,14,2,17,0.01
2013-10-30,74,66,59,63,60,55,90,80,63,30.07,29.95,10,1,12,0.00
2013-10-31,75,66,59,60,58,56,89,76,56,30.17,30.07,11,2,12,0.00
2013-11-1,74,65,57,60,56,53,86,75,57,30.19,30.10,13,2,15,0.00
2013-11-2,72,65,58,62,58,54,89,80,65,30.14,30.04,23,2,23,0.03
2013-11-3,72,67,63,63,61,60,91,81,67,30.08,29.95,20,4,23,0.09
2013-11-4,71,66,61,62,58,54,87,75,57,29.95,29.48,27,5,28,0.60
2013-11-5,67,62,57,59,55,52,92,80,61,29.57,29.39,22,3,22,0.91
2013-11-6,69,61,51,58,53,48,90,77,61,29.91,29.56,14,2,14,0.91
2013-11-7,71,62,52,62,56,48,88,81,68,30.12,29.91,21,3,25,0.01
2013-11-8,72,66,61,63,59,56,89,81,70,30.12,30.07,21,3,21,0.00
2013-11-9,72,65,60,63,58,55,85,79,68,30.07,29.97,25,3,27,0.00
2013-11-10,66,61,52,57,53,48,87,77,64,30.00,29.49,34,4,40,0.38
2013-11-11,56,53,50,49,46,43,87,78,68,29.74,29.41,34,12,36,0.28
2013-11-12,59,55,51,54,50,46,89,84,73,29.97,29.73,16,2,17,0.15
2013-11-13,66,58,50,55,52,48,91,80,67,29.99,29.89,13,2,14,0.01
2013-11-14,69,61,54,56,53,50,86,76,60,30.00,29.87,14,1,14,0.00
2013-11-15,61,57,55,56,54,51,91,87,82,30.02,29.83,14,2,14,0.88
2013-11-16,66,59,52,55,52,49,90,78,55,30.11,30.01,9,2,9,0.00
2013-11-17,68,60,55,55,52,49,86,76,61,30.17,30.08,16,3,17,0.01
2013-11-18,65,59,53,52,50,48,86,72,61,30.10,29.71,25,6,25,0.00
2013-11-19,63,57,53,56,50,48,91,78,61,29.78,29.44,28,6,33,1.98
2013-11-20,61,55,50,54,48,45,92,80,63,29.76,29.30,39,4,40,1.64
2013-11-21,57,52,48,46,44,39,89,74,60,29.75,29.53,34,4,34,1.64
2013-11-22,52,49,48,46,44,42,90,83,72,29.56,29.42,19,4,24,0.50
2013-11-23,48,47,45,45,43,42,89,87,83,29.60,29.42,19,5,20,1.39
2013-11-24,53,48,45,44,42,40,87,80,68,29.74,29.56,17,3,19,0.00
2013-11-25,57,46,40,44,36,25,86,70,49,29.91,29.73,33,8,33,0.01
2013-11-26,46,41,37,32,29,27,71,63,52,30.03,29.91,32,11,33,0.00
2013-11-27,46,40,37,34,31,29,78,70,61,30.30,30.02,19,6,20,0.00
2013-11-28,47,40,33,39,34,29,86,77,64,30.33,30.25,16,5,18,0.08
2013-11-29,56,45,38,42,37,32,85,74,56,30.28,30.11,12,3,13,0.00
2013-11-30,56,46,36,42,37,32,87,73,56,30.11,29.86,11,3,11,0.00
2013-12-1,58,54,47,42,39,37,68,57,48,29.87,29.68,30,13,33,0.00
2013-12-2,69,59,54,53,45,41,74,61,49,30.15,29.74,24,6,26,0.00
2013-12-3,60,54,47,41,37,33,65,53,41,30.25,30.14,21,6,21,0.00
2013-12-4,59,49,40,47,38,30,81,66,55,30.29,30.21,10,2,12,0.00
2013-12-5,56,46,38,44,37,33,83,74,50,30.23,30.14,7,1,7,0.00
2013-12-6,55,48,40,44,40,34,82,74,58,30.15,29.97,12,2,12,0.00
2013-12-7,58,49,41,43,41,37,85,75,56,30.34,30.02,7,1,8,0.00
2013-12-8,60,50,41,47,42,35,86,74,57,30.42,30.33,11,2,11,0.00
2013-12-9,60,52,46,48,44,40,82,74,62,30.45,30.39,10,2,10,0.00
2013-12-10,57,48,41,45,41,37,86,77,60,30.53,30.42,9,2,9,0.00
2013-12-11,59,49,41,49,43,36,87,78,64,30.56,30.51,6,1,7,0.00
2013-12-12,57,48,42,47,43,39,89,81,69,30.52,30.38,9,2,9,0.00
2013-12-13,52,44,38,44,39,35,92,83,69,30.38,30.28,12,2,12,0.00
2013-12-14,52,45,38,45,40,36,93,85,71,30.43,30.34,10,2,10,0.00
2013-12-15,55,50,45,46,43,38,89,80,67,30.51,30.40,15,2,15,0.06
2013-12-16,57,47,40,42,38,35,84,73,55,30.56,30.49,9,2,9,0.00
2013-12-17,58,45,37,43,36,31,84,71,49,30.52,30.42,6,1,6,0.00
2013-12-18,56,44,36,44,36,30,85,73,51,30.43,30.29,6,2,7,0.00
2013-12-19,56,46,35,44,38,30,83,73,63,30.31,30.18,10,3,10,0.00
2013-12-20,54,53,51,49,46,42,90,79,65,30.50,30.17,17,4,18,0.07
2013-12-21,60,52,45,50,46,42,89,83,66,30.60,30.50,9,2,10,0.00
2013-12-22,55,49,44,48,44,41,92,84,73,30.57,30.43,9,2,9,0.00
2013-12-23,53,46,40,47,42,37,94,87,76,30.43,30.28,8,2,9,0.01
2013-12-24,56,46,38,46,42,37,93,84,68,30.28,30.12,7,2,7,0.01
2013-12-25,58,54,46,51,46,41,84,76,70,30.12,29.64,31,7,33,0.05
2013-12-26,59,55,49,54,48,43,88,79,70,29.64,29.36,35,9,39,0.65
2013-12-27,53,49,44,46,43,40,86,81,74,29.93,29.50,7,1,7,0.01
2013-12-28,58,50,41,48,44,38,92,80,63,30.07,29.92,11,2,11,0.00
2013-12-29,60,53,47,52,48,43,89,83,72,30.14,30.05,15,2,15,0.01
2013-12-30,52,49,47,48,45,43,91,87,80,30.19,30.12,14,3,15,0.46
2013-12-31,58,50,46,46,43,41,89,78,62,30.14,30.07,9,2,9,0.01
2014-1-1,56,47,42,45,41,38,86,78,62,30.15,30.09,8,1,10,0.00
2014-1-2,55,48,40,47,42,37,88,82,72,30.14,30.06,7,1,8,0.01